• Join FlightAware (Why Join?)
  • Login
  • US Flag GB Flag 
10:37 EDT


 

Airport Tracker/Info


-or-


 

Live Flight TrackerFlight Track Log ✈ SWA655 ✈ 09-Apr-2013 ✈ KLAS - KMCO

Flight Track Log - Related Links

Times and Time Zones

All times are in EDT time to prevent confusion due to time zone crossing. See the SWA655 flight status page for this flight to view local times or setup timezone preferences in your user account.

Time Position Orientation Groundspeed Altitude Reporting Facility
EDT Latitude Longitude Course Direction KTS MPH feet Rate Location/Type
20:44 36.1006 -115.1522 20° North 135 155 3,100  Level Los Angeles Center
20:44 36.1222 -115.1422 20° North 175 201 4,200 2,700 Climbing Los Angeles Center
20:45 36.1314 -115.0919 77° East 224 258 6,600 2,880 Climbing Los Angeles Center
20:46 36.1406 -115.0119 82° East 236 272 9,800 3,240 Climbing Los Angeles Center
20:47 36.1286 -114.9003 98° East 271 312 13,400 3,300 Climbing Los Angeles Center
20:48 36.1097 -114.8042 104° East 287 330 16,700 1,920 Climbing Los Angeles Center
20:49 36.0847 -114.6847 104° East 352 405 17,400 1,500 Climbing Los Angeles Center
20:50 36.0558 -114.5447 104° East 413 475 19,900 2,880 Climbing Los Angeles Center
20:51 36.0261 -114.4022 104° East 428 493 23,400 2,640 Climbing Los Angeles Center
20:52 35.9975 -114.2633 104° East 419 482 25,900 2,160 Climbing Los Angeles Center
20:53 35.9625 -114.0922 104° East 427 491 28,400 2,220 Climbing Los Angeles Center
20:54 35.9258 -113.9175 104° East 439 505 30,500 1,620 Climbing Los Angeles Center
20:55 35.9008 -113.7689 102° East 442 509 31,800 1,200 Climbing Los Angeles Center
20:56 35.8778 -113.6119 100° East 462 532 33,000 1,380 Climbing Los Angeles Center
20:57 35.8533 -113.4625 101° East 465 535 34,700 1,500 Climbing Los Angeles Center
20:58 35.8294 -113.3075 101° East 463 533 36,100 1,020 Climbing Los Angeles Center
20:59 35.8083 -113.1825 102° East 463 533 36,900 420 Climbing Los Angeles Center
21:00 35.7775 -112.9936 101° East 468 539 37,000  Climbing Los Angeles Center
21:02 35.7458 -112.8042 102° East 469 540 37,000  Level Los Angeles Center
21:03 35.7200 -112.6467 101° East 469 540 37,000  Level Los Angeles Center
21:04 35.6944 -112.4900 101° East 467 537 37,000  Level Los Angeles Center
21:05 35.6681 -112.3342 102° East 466 536 37,000 180 Level Los Angeles Center
21:06 35.6408 -112.1792 102° East 464 534 37,400 540 Climbing Los Angeles Center
21:07 35.6156 -112.0244 101° East 462 532 38,200 660 Climbing Los Angeles Center
21:07 35.5975 -111.9308 103° East 466 536 38,600 480 Climbing Albuquerque Center
21:08 35.5869 -111.7397 94° East 467 537 39,000 180 Climbing Albuquerque Center
21:09 35.5814 -111.5836 92° East 462 532 39,000  Level Albuquerque Center
21:10 35.5722 -111.4214 94° East 457 526 39,000  Level Albuquerque Center
21:11 35.5647 -111.2608 93° East 460 529 39,000  Level Albuquerque Center
21:12 35.5569 -111.1117 94° East 459 528 39,000  Level Albuquerque Center
21:13 35.5481 -110.9397 94° East 455 524 39,000  Level Albuquerque Center
21:14 35.5389 -110.7908 94° East 456 525 39,000  Level Albuquerque Center
21:16 35.5317 -110.6158 93° East 459 528 39,000  Level Albuquerque Center
21:17 35.5222 -110.4675 94° East 458 527 39,000  Level Albuquerque Center
21:18 35.5117 -110.2925 94° East 460 529 39,000  Level Albuquerque Center
21:19 35.5039 -110.1431 94° East 461 531 39,000  Level Albuquerque Center
21:20 35.4958 -109.9928 94° East 461 531 39,000  Level Albuquerque Center
21:21 35.4853 -109.8181 94° East 461 531 39,000  Level Albuquerque Center
21:22 35.4758 -109.6689 94° East 461 531 39,000  Level Albuquerque Center
21:23 35.4656 -109.4939 94° East 462 532 39,000  Level Albuquerque Center
21:24 35.4544 -109.3414 95° East 468 539 39,000  Level Albuquerque Center
21:25 35.4425 -109.1669 95° East 465 535 39,000  Level Albuquerque Center
21:26 35.4328 -109.0172 95° East 463 533 39,000  Level Albuquerque Center
21:27 35.4228 -108.8686 95° East 461 531 39,000  Level Albuquerque Center
21:28 35.4108 -108.6950 95° East 461 531 39,000  Level Albuquerque Center
21:29 35.4000 -108.5456 95° East 461 531 39,000  Level Albuquerque Center
21:30 35.3878 -108.3717 95° East 460 529 39,000  Level Albuquerque Center
21:31 35.3761 -108.2236 95° East 460 529 39,000  Level Albuquerque Center
21:32 35.3625 -108.0492 95° East 461 531 39,000  Level Albuquerque Center
21:33 35.3508 -107.8978 95° East 465 535 39,000  Level Albuquerque Center
21:34 35.3364 -107.7222 96° East 466 536 39,000  Level Albuquerque Center
21:35 35.3239 -107.5697 96° East 469 540 39,000  Level Albuquerque Center
21:36 35.3092 -107.3964 96° East 475 547 39,000  Level Albuquerque Center
21:37 35.2961 -107.2353 96° East 475 547 39,000  Level Albuquerque Center
21:38 35.2828 -107.0836 96° East 475 547 39,000  Level Albuquerque Center
21:39 35.2672 -106.9056 96° East 473 544 39,000  Level Albuquerque Center
21:40 35.2550 -106.7556 96° East 465 535 39,000  Level Albuquerque Center
21:41 35.2406 -106.5750 96° East 475 547 39,000  Level Albuquerque Center
21:42 35.2233 -106.4233 98° East 479 551 39,000  Level Albuquerque Center
21:43 35.2100 -106.2628 96° East 475 547 39,000  Level Albuquerque Center
21:44 35.1936 -106.1069 97° East 470 541 39,000  Level Albuquerque Center
21:45 35.1783 -105.9472 97° East 470 541 39,000  Level Albuquerque Center
21:46 35.1622 -105.7586 96° East 475 547 39,000  Level Albuquerque Center
21:47 35.1494 -105.6006 96° East 468 539 39,000  Level Albuquerque Center
21:48 35.1317 -105.4419 98° East 467 537 39,000  Level Albuquerque Center
21:49 35.1153 -105.2844 97° East 465 535 39,000  Level Albuquerque Center
21:50 35.0983 -105.1256 97° East 467 537 39,000  Level Albuquerque Center
21:51 35.0822 -104.9664 97° East 469 540 39,000  Level Albuquerque Center
21:52 35.0658 -104.8081 97° East 468 539 39,000  Level Albuquerque Center
21:53 35.0489 -104.6483 97° East 471 542 39,000  Level Albuquerque Center
21:54 35.0319 -104.4900 97° East 470 541 39,000  Level Albuquerque Center
21:55 35.0153 -104.3317 97° East 471 542 39,000  Level Albuquerque Center
21:56 34.9958 -104.1478 97° East 472 543 39,000  Level Albuquerque Center
21:58 34.9783 -103.9922 98° East 467 537 39,000  Level Albuquerque Center
21:59 34.9611 -103.8375 98° East 462 532 39,000  Level Albuquerque Center
22:00 34.9433 -103.6806 98° East 465 535 39,000  Level Albuquerque Center
22:01 34.9258 -103.5189 97° East 475 547 39,000  Level Albuquerque Center
22:02 34.9067 -103.3556 98° East 482 555 39,000  Level Albuquerque Center
22:03 34.8858 -103.1911 99° East 486 559 39,000  Level Albuquerque Center
22:04 34.8667 -103.0253 98° East 490 564 39,000  Level Albuquerque Center
22:05 34.8472 -102.8597 98° East 491 565 39,000  Level Albuquerque Center
22:06 34.8269 -102.6944 98° East 490 564 39,000  Level Albuquerque Center
22:07 34.8031 -102.5089 99° East 489 563 39,000  Level Albuquerque Center
22:08 34.7828 -102.3467 99° East 488 562 39,000  Level Albuquerque Center
22:09 34.7628 -102.1847 99° East 489 563 39,000  Level Albuquerque Center
22:10 34.7428 -102.0231 99° East 488 562 39,000  Level Albuquerque Center
22:11 34.7208 -101.8600 99° East 492 566 39,000  Level Albuquerque Center
22:12 34.7000 -101.6969 99° East 493 567 39,000  Level Albuquerque Center
22:13 34.6783 -101.5319 99° East 497 572 39,000  Level Albuquerque Center
22:14 34.6525 -101.3325 99° East 501 577 39,000  Level Albuquerque Center
22:15 34.6292 -101.1667 100° East 502 578 39,000  Level Albuquerque Center
22:16 34.6069 -101.0003 99° East 503 579 39,000  Level Albuquerque Center
22:17 34.5839 -100.8339 100° East 502 578 39,000  Level Albuquerque Center
22:18 34.5600 -100.6672 100° East 503 579 39,000  Level Albuquerque Center
22:19 34.5372 -100.5022 99° East 500 575 39,000  Level Albuquerque Center
22:20 34.5144 -100.3381 100° East 497 572 39,000  Level Albuquerque Center
22:21 34.4906 -100.1694 100° East 505 581 39,000  Level Albuquerque Center
22:21 34.4767 -100.0711 100° East 492 566 39,000  Level Fort Worth Center
22:22 34.4531 -99.9067 100° East 492 566 39,000  Level Fort Worth Center
22:23 34.4289 -99.7475 100° East 492 566 39,000  Level Fort Worth Center
22:24 34.4028 -99.5806 101° East 486 559 39,000  Level Fort Worth Center
22:25 34.3764 -99.4164 101° East 486 559 39,000  Level Fort Worth Center
22:26 34.3539 -99.2550 100° East 487 560 39,000  Level Fort Worth Center
22:27 34.3347 -99.1236 100° East 487 560 39,000  Level Fort Worth Center
22:28 34.3058 -98.9497 101° East 487 560 39,000  Level Fort Worth Center
22:29 34.2806 -98.7858 101° East 487 560 39,000  Level Fort Worth Center
22:30 34.2550 -98.6247 101° East 487 560 39,000  Level Fort Worth Center
22:31 34.2522 -98.4664 91° East 482 555 39,000  Level Fort Worth Center
22:32 34.2600 -98.2981 87° East 487 560 39,000  Level Fort Worth Center
22:33 34.2714 -98.1247 85° East 498 573 39,000  Level Fort Worth Center
22:34 34.2786 -97.9564 87° East 498 573 39,000  Level Fort Worth Center
22:35 34.2792 -97.7881 90° East 498 573 39,000  Level Fort Worth Center
22:36 34.2608 -97.6219 98° East 493 567 39,000  Level Fort Worth Center
22:37 34.2297 -97.4636 103° East 498 573 39,000  Level Fort Worth Center
22:38 34.1983 -97.2931 102° East 482 555 39,000  Level Fort Worth Center
22:39 34.1708 -97.1375 102° East 472 543 39,000  Level Fort Worth Center
22:40 34.1414 -96.9844 103° East 472 543 39,000  Level Fort Worth Center
22:41 34.1156 -96.8289 101° East 472 543 39,000  Level Fort Worth Center
22:42 34.0942 -96.6886 100° East 472 543 39,000  Level Fort Worth Center
22:43 34.0639 -96.5333 103° East 477 549 39,000  Level Fort Worth Center
22:44 34.0333 -96.3633 102° East 472 543 39,000  Level Fort Worth Center
22:45 34.0047 -96.2083 103° East 472 543 39,000  Level Fort Worth Center
22:46 33.9739 -96.0511 103° East 472 543 39,000  Level Fort Worth Center
22:47 33.9431 -95.8939 103° East 472 543 39,000  Level Fort Worth Center
22:48 33.9117 -95.7367 103° East 472 543 39,000  Level Fort Worth Center
22:49 33.8850 -95.6044 104° East 488 562 39,000  Level Fort Worth Center
22:50 33.8467 -95.4178 104° East 488 562 39,000  Level Fort Worth Center
22:51 33.8147 -95.2561 103° East 488 562 39,000  Level Fort Worth Center
22:52 33.7847 -95.0892 102° East 493 567 39,000  Level Fort Worth Center
22:53 33.7522 -94.9278 104° East 493 567 39,000  Level Fort Worth Center
22:54 33.7178 -94.7689 105° East 493 567 39,000  Level Fort Worth Center
22:55 33.6892 -94.6100 102° East 487 560 39,000  Level Fort Worth Center
22:56 33.6564 -94.4539 104° East 487 560 39,000  Level Fort Worth Center
22:57 33.6256 -94.2978 103° East 487 560 39,000  Level Fort Worth Center
22:58 33.5944 -94.1392 103° East 487 560 39,000  Level Fort Worth Center
22:59 33.5611 -93.9836 104° East 487 560 39,000  Level Fort Worth Center
23:00 33.5367 -93.8575 103° East 487 560 39,000  Level Fort Worth Center
23:01 33.4983 -93.6872 105° East 487 560 39,000  Level Fort Worth Center
23:02 33.4644 -93.5317 105° East 487 560 39,000  Level Fort Worth Center
23:03 33.4303 -93.3764 105° East 482 555 39,000  Level Fort Worth Center
23:04 33.3981 -93.2186 104° East 482 555 39,000 180 Level Fort Worth Center
23:05 33.3633 -93.0611 105° East 482 555 39,400 840 Climbing Fort Worth Center
23:06 33.3308 -92.9086 104° East 482 555 40,700 780 Climbing Fort Worth Center
23:07 33.2961 -92.7564 105° East 482 555 41,000 120 Climbing Fort Worth Center
23:08 33.2633 -92.6042 104° East 477 549 41,000  Level Fort Worth Center
23:10 33.1914 -92.2936 105° East 475 547 41,000  Level Memphis Center
23:11 33.1561 -92.1389 105° East 475 547 41,000  Level Memphis Center
23:12 33.1186 -91.9869 106° East 481 554 41,000  Level Memphis Center
23:13 33.0850 -91.8325 105° East 481 554 41,000  Level Memphis Center
23:14 33.0469 -91.6783 106° East 481 554 41,000  Level Memphis Center
23:15 33.0131 -91.5217 104° East 481 554 41,000  Level Memphis Center
23:16 32.9747 -91.3653 106° East 481 554 41,000  Level Memphis Center
23:17 32.9383 -91.2089 105° East 481 554 41,000  Level Memphis Center
23:18 32.9017 -91.0525 106° East 486 559 41,000  Level Memphis Center
23:19 32.8628 -90.8964 106° East 486 559 41,000  Level Memphis Center
23:20 32.8258 -90.7381 105° East 491 565 41,000  Level Memphis Center
23:21 32.7886 -90.5822 106° East 491 565 41,000  Level Memphis Center
23:22 32.7511 -90.4214 105° East 496 571 41,000  Level Memphis Center
23:23 32.7094 -90.2486 106° East 496 571 41,000  Level Memphis Center
23:24 32.6717 -90.0933 106° East 496 571 41,000  Level Memphis Center
23:25 32.6317 -89.9403 107° East 496 571 41,000  Level Memphis Center
23:26 32.5933 -89.7878 107° East 491 565 41,000  Level Memphis Center
23:27 32.5592 -89.6350 105° East 486 559 41,000  Level Memphis Center
23:28 32.5206 -89.4825 107° East 481 554 41,000  Level Memphis Center
23:29 32.4819 -89.3328 107° East 476 548 41,000  Level Memphis Center
23:30 32.4450 -89.1806 106° East 481 554 41,000  Level Memphis Center
23:32 32.3833 -88.9528 108° East 467 537 41,000  Level Atlanta Center
23:33 32.3436 -88.7958 107° East 477 549 41,000  Level Atlanta Center
23:34 32.3036 -88.6414 107° East 482 555 41,000  Level Atlanta Center
23:35 32.2656 -88.4869 106° East 487 560 41,000  Level Atlanta Center
23:36 32.2250 -88.3328 107° East 487 560 41,000  Level Atlanta Center
23:37 32.1844 -88.1764 107° East 487 560 41,000  Level Atlanta Center
23:38 32.1458 -88.0225 106° East 487 560 41,000  Level Atlanta Center
23:39 32.1047 -87.8686 107° East 487 560 41,000  Level Atlanta Center
23:41 32.0072 -87.5081 108° East 483 556 41,000  Level Jacksonville Center
23:42 31.9650 -87.3517 108° East 488 562 41,000  Level Jacksonville Center
23:43 31.9222 -87.2003 108° East 488 562 41,000  Level Jacksonville Center
23:44 31.8772 -87.0464 109° East 488 562 41,000  Level Jacksonville Center
23:45 31.8400 -86.9081 108° East 495 570 41,000  Level Jacksonville Center
23:46 31.7967 -86.7569 109° East 495 570 41,000  Level Jacksonville Center
23:47 31.7550 -86.6061 108° East 490 564 41,000  Level Jacksonville Center
23:48 31.7136 -86.4506 107° East 490 564 41,000  Level Jacksonville Center
23:49 31.6697 -86.3025 109° East 490 564 41,000  Level Jacksonville Center
23:50 31.6278 -86.1522 108° East 490 564 41,000  Level Jacksonville Center
23:51 31.5558 -86.0206 123° Southeast 483 556 41,000  Level Jacksonville Center
23:52 31.4775 -85.8961 126° Southeast 478 550 41,000  Level Jacksonville Center
23:53 31.3989 -85.7719 127° Southeast 483 556 41,000  Level Jacksonville Center
23:54 31.3144 -85.6283 125° Southeast 483 556 41,000  Level Jacksonville Center
23:55 31.2378 -85.5069 126° Southeast 483 556 41,000  Level Jacksonville Center
23:56 31.1567 -85.3783 126° Southeast 483 556 41,000  Level Jacksonville Center
23:57 31.0778 -85.2550 127° Southeast 483 556 41,000  Level Jacksonville Center
23:58 30.9986 -85.1294 126° Southeast 483 556 41,000  Level Jacksonville Center
23:59 30.9192 -85.0017 126° Southeast 483 556 41,000  Level Jacksonville Center
00:00 30.8419 -84.8814 127° Southeast 483 556 41,000  Level Jacksonville Center
00:01 30.7603 -84.7542 127° Southeast 483 556 41,000  Level Jacksonville Center
00:02 30.6786 -84.6292 127° Southeast 483 556 41,000 -360 Level Jacksonville Center
00:03 30.5986 -84.5047 127° Southeast 483 556 40,300 -900 Descending Jacksonville Center
00:04 30.5228 -84.3878 127° Southeast 477 549 39,200 -1,020 Descending Jacksonville Center
00:05 30.4450 -84.2683 127° Southeast 469 540 38,300 -900 Descending Jacksonville Center
00:06 30.3708 -84.1542 127° Southeast 458 527 37,500 -660 Descending Jacksonville Center
00:07 30.2947 -84.0328 126° Southeast 458 527 37,000 -300 Descending Jacksonville Center
00:08 30.2186 -83.9214 128° Southeast 458 527 37,000  Level Jacksonville Center
00:09 30.1400 -83.8028 127° Southeast 458 527 37,000  Level Jacksonville Center
00:10 30.0636 -83.6869 127° Southeast 458 527 37,000  Level Jacksonville Center
00:11 29.9869 -83.5689 127° Southeast 458 527 37,000  Level Jacksonville Center
00:12 29.9083 -83.4533 128° Southeast 464 534 37,000  Level Jacksonville Center
00:13 29.8314 -83.3356 127° Southeast 464 534 37,000  Level Jacksonville Center
00:14 29.7567 -83.2275 129° Southeast 470 541 37,000  Level Jacksonville Center
00:15 29.6817 -83.1125 127° Southeast 465 535 37,000 -1,140 Level Jacksonville Center
00:16 29.6067 -83.0000 127° Southeast 465 535 34,800 -2,700 Descending Jacksonville Center
00:17 29.5253 -82.8806 128° Southeast 465 535 31,600 -2,880 Descending Jacksonville Center
00:18 29.4458 -82.7614 127° Southeast 471 542 29,100 -2,520 Descending Jacksonville Center
00:19 29.3706 -82.6494 128° Southeast 465 535 26,600 -2,520 Descending Jacksonville Center
00:20 29.2994 -82.5403 127° Southeast 446 513 24,100 -2,400 Descending Jacksonville Center
00:21 29.2281 -82.4381 129° Southeast 433 498 21,800 -2,280 Descending Jacksonville Center
00:22 29.1608 -82.3386 128° Southeast 412 474 19,600 -2,100 Descending Jacksonville Center
00:23 29.0958 -82.2414 127° Southeast 395 455 17,700 -2,160 Descending Jacksonville Center
00:24 29.0328 -82.1492 128° Southeast 379 436 15,300 -2,280 Descending Jacksonville Center
00:25 28.9717 -82.0642 129° Southeast 366 421 13,200 -2,100 Descending Jacksonville Center
00:26 28.9064 -81.9700 128° Southeast 354 407 11,200 -1,320 Descending Jacksonville Center
00:27 28.8597 -81.8897 124° Southeast 333 383 10,600 -960 Descending Jacksonville Center
00:28 28.8500 -81.8667 116° Southeast 280 322 9,900 -1,560 Descending Orlando TRACON
00:29 28.8000 -81.8000 131° Southeast 283 326 8,600 -1,500 Descending Orlando TRACON
00:30 28.7667 -81.7167 115° Southeast 276 318 7,100 -1,380 Descending Orlando TRACON
00:31 28.7167 -81.6500 131° Southeast 269 310 6,000 -1,080 Descending Orlando TRACON
00:32 28.6833 -81.5833 120° Southeast 264 304 5,100 -960 Descending Orlando TRACON
00:33 28.6500 -81.5000 114° Southeast 259 298 4,100 -660 Descending Orlando TRACON
00:34 28.6333 -81.4500 111° Southeast 234 269 3,800 -840 Descending Orlando TRACON
00:35 28.6000 -81.3667 114° Southeast 240 276 2,500 -660 Descending Orlando TRACON
00:36 28.5667 -81.3167 127° Southeast 191 220 2,500 -300 Level Orlando TRACON
00:37 28.5333 -81.3000 156° South 155 178 1,900 -720 Descending Orlando TRACON
00:38 28.4833 -81.3000 180° South 145 167 1,100 -840 Descending Orlando TRACON
00:40 28.4294 -81.3090 180° South  Level Estimated
00:47 28.4294 -81.3090 24° Northeast  Level Estimated
00:48 28.4294 -81.3090 24° Northeast  Level Estimated
00:49 28.4294 -81.3090 24° Northeast  Level Estimated
00:50 28.4294 -81.3090 24° Northeast  Level Estimated